createdAt,value
2023-02-22T00:01:35.875Z,3.00
2023-02-22T00:04:05.778Z,2.90
2023-02-22T00:06:33.758Z,2.90
2023-02-22T00:09:02.597Z,2.90
2023-02-22T00:11:31.647Z,2.80
2023-02-22T00:13:59.010Z,2.80
2023-02-22T00:16:26.843Z,2.80
2023-02-22T00:18:53.990Z,2.80
2023-02-22T00:21:21.819Z,2.80
2023-02-22T00:23:49.762Z,2.90
2023-02-22T00:26:20.247Z,2.90
2023-02-22T00:28:49.589Z,2.90
2023-02-22T00:31:17.624Z,2.90
2023-02-22T00:33:45.166Z,2.90
2023-02-22T00:36:13.291Z,2.90
2023-02-22T00:38:41.318Z,2.70
2023-02-22T00:41:08.877Z,2.70
2023-02-22T00:43:36.007Z,2.60
2023-02-22T00:46:03.734Z,2.60
2023-02-22T00:48:30.965Z,2.50
2023-02-22T00:50:57.973Z,2.50
2023-02-22T00:53:25.970Z,2.50
2023-02-22T00:55:53.399Z,2.50
2023-02-22T00:58:21.447Z,2.60
2023-02-22T01:00:49.179Z,2.70
2023-02-22T01:03:18.942Z,2.80
2023-02-22T01:05:46.826Z,2.80
2023-02-22T01:08:16.031Z,2.80
2023-02-22T01:10:43.353Z,2.80
2023-02-22T01:13:12.630Z,2.80
2023-02-22T01:15:42.777Z,2.70
2023-02-22T01:18:12.708Z,2.70
2023-02-22T01:20:39.637Z,2.60
2023-02-22T01:23:08.139Z,2.50
2023-02-22T01:25:35.761Z,2.60
2023-02-22T01:28:04.339Z,2.50
2023-02-22T01:30:34.060Z,2.40
2023-02-22T01:33:03.019Z,2.40
2023-02-22T01:35:32.980Z,2.40
2023-02-22T01:38:00.382Z,2.40
2023-02-22T01:40:34.158Z,2.30
2023-02-22T01:43:03.894Z,2.20
2023-02-22T01:45:30.877Z,2.20
2023-02-22T01:48:06.355Z,2.10
2023-02-22T01:50:38.785Z,2.20
2023-02-22T01:53:08.051Z,2.20
2023-02-22T01:55:35.790Z,2.30
2023-02-22T01:58:04.482Z,2.30
2023-02-22T02:00:32.292Z,2.30
2023-02-22T02:03:03.179Z,2.30
2023-02-22T02:05:33.084Z,2.30
2023-02-22T02:08:05.957Z,2.30
2023-02-22T02:10:34.798Z,2.30
2023-02-22T02:13:04.075Z,2.30
2023-02-22T02:15:33.160Z,2.30
2023-02-22T02:18:06.226Z,2.30
2023-02-22T02:20:42.102Z,2.30
2023-02-22T02:23:17.452Z,2.30
2023-02-22T02:26:04.060Z,2.40
2023-02-22T02:28:34.269Z,2.30
2023-02-22T02:31:10.406Z,2.30
2023-02-22T02:33:57.729Z,2.30
2023-02-22T02:36:40.202Z,2.10
2023-02-22T02:39:15.859Z,2.00
2023-02-22T02:41:48.515Z,2.00
2023-02-22T02:44:22.625Z,1.90
2023-02-22T02:47:01.240Z,1.90
2023-02-22T02:49:48.282Z,1.80
2023-02-22T02:52:19.358Z,1.80
2023-02-22T02:54:47.104Z,1.70
2023-02-22T02:57:14.487Z,1.70
2023-02-22T02:59:41.393Z,1.70
2023-02-22T03:02:39.985Z,1.60
2023-02-22T03:05:12.991Z,1.50
2023-02-22T03:07:58.134Z,1.50
2023-02-22T03:10:37.972Z,1.50
2023-02-22T03:13:22.704Z,1.50
2023-02-22T03:16:17.634Z,1.50
2023-02-22T03:19:05.681Z,1.50
2023-02-22T03:21:43.490Z,1.50
2023-02-22T03:24:22.130Z,1.50
2023-02-22T03:27:03.039Z,1.50
2023-02-22T03:29:36.784Z,1.50
2023-02-22T03:32:08.025Z,1.50
2023-02-22T03:34:40.905Z,1.50
2023-02-22T03:37:16.009Z,1.50
2023-02-22T03:39:45.435Z,1.50
2023-02-22T03:42:21.413Z,1.60
2023-02-22T03:44:51.429Z,1.50
2023-02-22T03:47:28.967Z,1.50
2023-02-22T03:49:57.725Z,1.40
2023-02-22T03:52:24.754Z,1.40
2023-02-22T03:54:53.847Z,1.40
2023-02-22T03:57:29.075Z,1.30
2023-02-22T03:59:56.371Z,1.20
2023-02-22T04:02:23.926Z,1.20
2023-02-22T04:04:50.941Z,1.20
2023-02-22T04:07:18.198Z,1.30
2023-02-22T04:09:45.110Z,1.30
2023-02-22T04:12:12.062Z,1.30
2023-02-22T04:14:38.971Z,1.30
2023-02-22T04:17:05.975Z,1.20
2023-02-22T04:19:32.966Z,1.10
2023-02-22T04:21:59.853Z,1.20
2023-02-22T04:24:27.105Z,1.20
2023-02-22T04:26:55.351Z,1.20
2023-02-22T04:29:22.386Z,1.10
2023-02-22T04:31:49.407Z,1.10
2023-02-22T04:34:16.361Z,1.10
2023-02-22T04:36:44.757Z,1.10
2023-02-22T04:39:11.841Z,1.10
2023-02-22T04:41:38.941Z,1.10
2023-02-22T04:44:06.014Z,1.10
2023-02-22T04:46:33.036Z,1.10
2023-02-22T04:49:00.041Z,1.10
2023-02-22T04:51:27.060Z,1.10
2023-02-22T04:53:53.979Z,1.10
2023-02-22T04:56:21.065Z,1.10
2023-02-22T04:58:48.145Z,1.10
2023-02-22T05:01:16.730Z,1.10
2023-02-22T05:03:44.111Z,1.10
2023-02-22T05:06:12.537Z,1.10
2023-02-22T05:08:39.540Z,1.00
2023-02-22T05:11:06.636Z,1.00
2023-02-22T05:13:33.605Z,1.00
2023-02-22T05:16:00.636Z,1.00
2023-02-22T05:18:27.566Z,1.00
2023-02-22T05:20:54.584Z,1.00
2023-02-22T05:23:21.608Z,1.00
2023-02-22T05:25:48.549Z,1.00
2023-02-22T05:28:16.978Z,1.10
2023-02-22T05:30:44.017Z,1.00
2023-02-22T05:33:11.153Z,1.00
2023-02-22T05:35:38.239Z,0.90
2023-02-22T05:38:06.483Z,1.00
2023-02-22T05:40:33.596Z,1.00
2023-02-22T05:43:02.276Z,1.00
2023-02-22T05:45:29.785Z,1.00
2023-02-22T05:47:56.936Z,1.00
2023-02-22T05:50:24.822Z,1.00
2023-02-22T05:52:52.240Z,1.00
2023-02-22T05:55:21.465Z,1.00
2023-02-22T05:57:48.879Z,1.00
2023-02-22T06:00:26.410Z,1.00
2023-02-22T06:02:57.785Z,1.00
2023-02-22T06:05:25.506Z,1.00
2023-02-22T06:07:52.903Z,1.00
2023-02-22T06:10:20.295Z,1.00
2023-02-22T06:12:49.368Z,0.90
2023-02-22T06:15:17.573Z,0.80
2023-02-22T06:17:45.080Z,0.90
2023-02-22T06:20:14.006Z,0.90
2023-02-22T06:22:42.176Z,0.90
2023-02-22T06:25:09.789Z,1.00
2023-02-22T06:27:37.483Z,0.90
2023-02-22T06:30:05.198Z,0.90
2023-02-22T06:32:32.437Z,0.80
2023-02-22T06:34:59.461Z,0.80
2023-02-22T06:37:26.447Z,0.90
2023-02-22T06:39:53.343Z,0.90
2023-02-22T06:42:20.295Z,1.00
2023-02-22T06:44:47.195Z,1.10
2023-02-22T06:47:14.152Z,1.20
2023-02-22T06:49:41.116Z,1.40
2023-02-22T06:52:09.533Z,1.50
2023-02-22T06:54:37.422Z,1.60
2023-02-22T06:57:04.478Z,1.60
2023-02-22T06:59:31.621Z,1.70
2023-02-22T07:01:59.317Z,1.80
2023-02-22T07:04:26.230Z,2.00
2023-02-22T07:06:53.310Z,2.30
2023-02-22T07:09:20.534Z,2.70
2023-02-22T07:11:47.637Z,3.60
2023-02-22T07:14:17.613Z,4.10
2023-02-22T07:16:44.566Z,4.50
2023-02-22T07:19:11.601Z,4.80
2023-02-22T07:21:38.701Z,5.40
2023-02-22T07:24:05.756Z,6.10
2023-02-22T07:26:39.732Z,6.40
2023-02-22T07:29:07.075Z,6.50
2023-02-22T07:31:38.443Z,6.30
2023-02-22T07:34:05.362Z,6.40
2023-02-22T07:36:32.483Z,6.40
2023-02-22T07:38:59.388Z,6.00
2023-02-22T07:41:26.552Z,5.90
2023-02-22T07:43:53.524Z,5.90
2023-02-22T07:46:20.650Z,5.90
2023-02-22T07:48:47.645Z,5.80
2023-02-22T07:51:17.204Z,6.00
2023-02-22T07:53:44.262Z,6.30
2023-02-22T07:56:11.256Z,7.30
2023-02-22T07:58:38.283Z,8.10
2023-02-22T08:01:05.474Z,8.70
2023-02-22T08:03:36.600Z,9.60
2023-02-22T08:06:05.755Z,10.50
2023-02-22T08:08:32.850Z,11.30
2023-02-22T08:10:59.853Z,11.60
2023-02-22T08:13:26.823Z,11.80
2023-02-22T08:15:54.756Z,12.00
2023-02-22T08:18:22.756Z,11.70
2023-02-22T08:20:52.170Z,11.20
2023-02-22T08:23:20.703Z,10.50
2023-02-22T08:25:47.816Z,10.00
2023-02-22T08:28:18.153Z,9.80
2023-02-22T08:30:45.118Z,9.80
2023-02-22T08:33:16.039Z,9.80
2023-02-22T08:35:43.777Z,9.80
2023-02-22T08:38:18.727Z,9.70
2023-02-22T08:40:45.706Z,9.60
2023-02-22T08:43:13.977Z,9.60
2023-02-22T08:45:41.327Z,9.70
2023-02-22T08:48:08.385Z,10.00
2023-02-22T08:50:35.771Z,10.20
2023-02-22T08:53:05.099Z,10.50
2023-02-22T08:55:35.289Z,10.60
2023-02-22T08:58:03.506Z,10.60
2023-02-22T09:00:35.315Z,10.60
2023-02-22T09:03:08.040Z,10.50
2023-02-22T09:05:34.990Z,10.50
2023-02-22T09:08:01.999Z,10.40
2023-02-22T09:10:31.216Z,10.40
2023-02-22T09:13:00.965Z,10.40
2023-02-22T09:15:28.568Z,10.50
2023-02-22T09:17:56.270Z,10.70
2023-02-22T09:20:27.473Z,10.90
2023-02-22T09:22:55.361Z,11.00
2023-02-22T09:25:23.113Z,11.10
2023-02-22T09:27:53.843Z,11.30
2023-02-22T09:30:33.501Z,11.40
2023-02-22T09:33:04.225Z,11.70
2023-02-22T09:35:31.578Z,11.80
2023-02-22T09:38:00.480Z,11.90
2023-02-22T09:40:30.952Z,12.00
2023-02-22T09:43:23.080Z,12.20
2023-02-22T09:46:19.521Z,12.30
2023-02-22T09:49:05.485Z,12.40
2023-02-22T09:52:01.417Z,12.60
2023-02-22T09:54:45.300Z,12.70
2023-02-22T09:57:21.568Z,12.80
2023-02-22T10:00:01.204Z,13.00
2023-02-22T10:02:32.796Z,13.10
2023-02-22T10:05:06.685Z,13.30
2023-02-22T10:07:47.235Z,13.40
2023-02-22T10:10:22.529Z,13.40
2023-02-22T10:12:49.462Z,13.60
2023-02-22T10:15:52.475Z,13.70
2023-02-22T10:18:49.654Z,13.50
2023-02-22T10:21:42.653Z,13.30
2023-02-22T10:24:24.851Z,13.40
2023-02-22T10:26:54.235Z,13.50
2023-02-22T10:29:40.757Z,13.70
2023-02-22T10:32:17.274Z,13.90
2023-02-22T10:34:51.689Z,14.00
2023-02-22T10:37:28.479Z,14.30
2023-02-22T10:40:32.284Z,14.50
2023-02-22T10:43:08.124Z,14.50
2023-02-22T10:45:37.298Z,14.40
2023-02-22T10:48:12.164Z,14.40
2023-02-22T10:50:42.436Z,14.50
2023-02-22T10:53:10.996Z,14.30
2023-02-22T10:56:16.942Z,14.30
2023-02-22T10:59:02.707Z,14.40
2023-02-22T11:01:32.748Z,14.50
2023-02-22T11:04:11.011Z,14.60
2023-02-22T11:06:40.941Z,14.60
2023-02-22T11:09:23.444Z,14.60
2023-02-22T11:12:08.236Z,14.80
2023-02-22T11:14:35.204Z,15.00
2023-02-22T11:17:08.070Z,15.00
2023-02-22T11:19:38.344Z,15.10
2023-02-22T11:22:09.662Z,15.20
2023-02-22T11:25:03.394Z,15.30
2023-02-22T11:27:38.268Z,15.40
2023-02-22T11:30:21.975Z,15.30
2023-02-22T11:33:17.760Z,15.50
2023-02-22T11:35:54.054Z,15.70
2023-02-22T11:38:37.911Z,15.70
2023-02-22T11:41:04.877Z,15.60
2023-02-22T11:43:32.030Z,15.50
2023-02-22T11:46:05.023Z,15.50
2023-02-22T11:48:36.757Z,15.40
2023-02-22T11:51:14.454Z,15.50
2023-02-22T11:54:03.829Z,15.50
2023-02-22T11:56:40.296Z,15.60
2023-02-22T11:59:23.960Z,15.70
2023-02-22T12:02:37.462Z,15.70
2023-02-22T12:05:25.428Z,15.80
2023-02-22T12:08:20.015Z,15.80
2023-02-22T12:11:07.149Z,15.90
2023-02-22T12:13:43.156Z,16.10
2023-02-22T12:16:28.535Z,16.20
2023-02-22T12:19:13.756Z,16.30
2023-02-22T12:21:47.420Z,16.30
2023-02-22T12:24:36.781Z,16.40
2023-02-22T12:27:10.936Z,16.50
2023-02-22T12:29:50.288Z,16.50
2023-02-22T12:32:45.895Z,16.40
2023-02-22T12:35:21.088Z,16.30
2023-02-22T12:38:24.801Z,16.20
2023-02-22T12:40:58.320Z,16.10
2023-02-22T12:43:39.032Z,16.10
2023-02-22T12:46:32.486Z,16.20
2023-02-22T12:49:24.817Z,16.30
2023-02-22T12:51:57.666Z,16.30
2023-02-22T12:54:40.017Z,16.20
2023-02-22T12:57:12.387Z,16.00
2023-02-22T12:59:44.253Z,15.70
2023-02-22T13:02:44.053Z,15.40
2023-02-22T13:05:17.920Z,15.30
2023-02-22T13:08:05.391Z,15.20
2023-02-22T13:11:15.063Z,15.00
2023-02-22T13:14:08.640Z,15.00
2023-02-22T13:16:52.831Z,14.90
2023-02-22T13:19:44.541Z,14.90
2023-02-22T13:22:20.887Z,14.90
2023-02-22T13:25:12.332Z,14.90
2023-02-22T13:28:13.083Z,14.90
2023-02-22T13:30:49.170Z,15.10
2023-02-22T13:33:18.986Z,15.10
2023-02-22T13:35:59.571Z,15.20
2023-02-22T13:38:45.290Z,15.30
2023-02-22T13:41:22.384Z,15.30
2023-02-22T13:44:01.500Z,15.40
2023-02-22T13:46:50.836Z,15.40
2023-02-22T13:49:45.151Z,15.30
2023-02-22T13:52:18.063Z,15.40
2023-02-22T13:54:51.505Z,15.40
2023-02-22T13:57:40.388Z,15.40
2023-02-22T14:00:16.185Z,15.50
2023-02-22T14:03:01.542Z,15.80
2023-02-22T14:05:46.612Z,16.10
2023-02-22T14:08:19.423Z,16.40
2023-02-22T14:10:46.441Z,16.30
2023-02-22T14:13:16.154Z,16.10
2023-02-22T14:16:01.171Z,16.00
2023-02-22T14:18:36.274Z,15.70
2023-02-22T14:21:09.985Z,15.50
2023-02-22T14:23:43.863Z,15.40
2023-02-22T14:26:18.961Z,15.20
2023-02-22T14:29:05.840Z,15.10
2023-02-22T14:31:41.048Z,15.00
2023-02-22T14:34:15.850Z,14.90
2023-02-22T14:36:51.447Z,14.80
2023-02-22T14:39:20.943Z,14.70
2023-02-22T14:42:01.876Z,14.60
2023-02-22T14:44:39.683Z,14.60
2023-02-22T14:47:14.334Z,14.50
2023-02-22T14:49:45.015Z,14.50
2023-02-22T14:52:24.816Z,14.40
2023-02-22T14:55:13.786Z,14.30
2023-02-22T14:57:50.052Z,14.20
2023-02-22T15:00:23.339Z,14.20
2023-02-22T15:02:57.401Z,14.20
2023-02-22T15:05:27.218Z,14.10
2023-02-22T15:08:03.785Z,14.10
2023-02-22T15:10:43.158Z,14.00
2023-02-22T15:13:24.004Z,14.00
2023-02-22T15:16:01.369Z,14.00
2023-02-22T15:18:47.759Z,13.90
2023-02-22T15:21:17.947Z,13.90
2023-02-22T15:23:50.022Z,13.80
2023-02-22T15:26:35.264Z,13.70
2023-02-22T15:29:08.352Z,13.60
2023-02-22T15:31:40.067Z,13.50
2023-02-22T15:34:11.427Z,13.40
2023-02-22T15:36:38.898Z,13.30
2023-02-22T15:39:08.895Z,13.30
2023-02-22T15:41:36.374Z,13.20
2023-02-22T15:44:23.269Z,13.10
2023-02-22T15:46:50.989Z,13.00
2023-02-22T15:49:21.035Z,12.90
2023-02-22T15:51:59.385Z,12.80
2023-02-22T15:54:28.019Z,12.70
2023-02-22T15:56:56.599Z,12.60
2023-02-22T15:59:30.565Z,12.50
2023-02-22T16:01:59.552Z,12.40
2023-02-22T16:04:30.247Z,12.40
2023-02-22T16:07:17.141Z,12.30
2023-02-22T16:09:51.496Z,12.20
2023-02-22T16:12:21.512Z,12.10
2023-02-22T16:14:50.104Z,12.10
2023-02-22T16:17:37.063Z,12.00
2023-02-22T16:20:13.435Z,12.00
2023-02-22T16:22:46.599Z,12.00
2023-02-22T16:25:19.326Z,12.10
2023-02-22T16:27:52.749Z,12.10
2023-02-22T16:30:25.838Z,12.10
2023-02-22T16:32:57.135Z,12.00
2023-02-22T16:35:29.130Z,11.80
2023-02-22T16:38:17.132Z,11.80
2023-02-22T16:40:54.697Z,11.60
2023-02-22T16:43:33.420Z,11.50
2023-02-22T16:46:01.884Z,11.50
2023-02-22T16:48:32.666Z,11.40
2023-02-22T16:51:06.454Z,11.30
2023-02-22T16:53:33.845Z,11.20
2023-02-22T16:56:05.929Z,11.20
2023-02-22T16:58:35.841Z,11.10
2023-02-22T17:01:02.995Z,11.00
2023-02-22T17:03:30.124Z,11.00
2023-02-22T17:05:57.172Z,10.90
2023-02-22T17:08:24.172Z,10.80
2023-02-22T17:10:55.264Z,10.80
2023-02-22T17:13:27.282Z,10.70
2023-02-22T17:15:55.106Z,10.70
2023-02-22T17:18:24.624Z,10.50
2023-02-22T17:20:52.991Z,10.40
2023-02-22T17:23:21.110Z,10.30
2023-02-22T17:25:56.497Z,10.30
2023-02-22T17:28:24.752Z,10.20
2023-02-22T17:30:53.342Z,10.00
2023-02-22T17:33:26.776Z,10.00
2023-02-22T17:35:56.004Z,10.00
2023-02-22T17:38:23.103Z,9.90
2023-02-22T17:40:54.931Z,9.80
2023-02-22T17:43:23.719Z,9.70
2023-02-22T17:45:50.729Z,9.60
2023-02-22T17:48:18.526Z,9.40
2023-02-22T17:50:47.168Z,9.30
2023-02-22T17:53:14.438Z,9.20
2023-02-22T17:55:42.565Z,9.20
2023-02-22T17:58:14.819Z,9.10
2023-02-22T18:00:49.907Z,9.10
2023-02-22T18:03:25.943Z,9.10
2023-02-22T18:05:57.699Z,9.10
2023-02-22T18:08:26.033Z,9.10
2023-02-22T18:10:56.518Z,9.00
2023-02-22T18:13:25.862Z,9.00
2023-02-22T18:15:53.927Z,8.90
2023-02-22T18:18:22.256Z,8.80
2023-02-22T18:20:51.593Z,8.80
2023-02-22T18:23:23.040Z,8.70
2023-02-22T18:26:09.297Z,8.50
2023-02-22T18:28:37.524Z,8.50
2023-02-22T18:31:09.202Z,8.50
2023-02-22T18:33:36.397Z,8.50
2023-02-22T18:36:03.642Z,8.50
2023-02-22T18:38:30.579Z,8.60
2023-02-22T18:41:02.619Z,8.60
2023-02-22T18:43:31.908Z,8.50
2023-02-22T18:46:07.013Z,8.50
2023-02-22T18:48:34.152Z,8.50
2023-02-22T18:51:02.490Z,8.40
2023-02-22T18:53:30.197Z,8.30
2023-02-22T18:55:57.288Z,8.20
2023-02-22T18:58:24.306Z,8.20
2023-02-22T19:00:51.220Z,8.10
2023-02-22T19:03:18.187Z,8.10
2023-02-22T19:05:45.108Z,8.10
2023-02-22T19:08:11.993Z,8.10
2023-02-22T19:10:39.154Z,8.10
2023-02-22T19:13:10.796Z,8.00
2023-02-22T19:15:38.569Z,8.00
2023-02-22T19:18:05.991Z,7.90
2023-02-22T19:20:33.453Z,7.90
2023-02-22T19:23:01.353Z,7.80
2023-02-22T19:25:29.184Z,7.70
2023-02-22T19:27:56.939Z,7.80
2023-02-22T19:30:24.994Z,7.60
2023-02-22T19:32:52.677Z,7.60
2023-02-22T19:35:28.352Z,7.60
2023-02-22T19:37:56.125Z,7.60
2023-02-22T19:40:23.336Z,7.50
2023-02-22T19:42:52.090Z,7.50
2023-02-22T19:45:20.107Z,7.50
2023-02-22T19:47:47.696Z,7.40
2023-02-22T19:50:18.734Z,7.40
2023-02-22T19:52:45.882Z,7.40
2023-02-22T19:55:12.904Z,7.40
2023-02-22T19:57:46.494Z,7.40
2023-02-22T20:00:24.521Z,7.40
2023-02-22T20:03:05.695Z,7.50
2023-02-22T20:05:37.272Z,7.50
2023-02-22T20:08:04.384Z,7.50
2023-02-22T20:10:33.020Z,7.60
2023-02-22T20:13:00.506Z,7.60
2023-02-22T20:15:28.517Z,7.60
2023-02-22T20:17:58.116Z,7.60
2023-02-22T20:20:25.810Z,7.60
2023-02-22T20:22:53.722Z,7.60
2023-02-22T20:25:20.928Z,7.60
2023-02-22T20:27:47.856Z,7.60
2023-02-22T20:30:18.157Z,7.50
2023-02-22T20:32:45.460Z,7.50
2023-02-22T20:35:12.516Z,7.40
2023-02-22T20:37:42.650Z,7.40
2023-02-22T20:40:10.261Z,7.40
2023-02-22T20:42:40.640Z,7.40
2023-02-22T20:45:09.733Z,7.40
2023-02-22T20:47:37.913Z,7.40
2023-02-22T20:50:05.867Z,7.40
2023-02-22T20:52:32.894Z,7.40
2023-02-22T20:55:01.118Z,7.40
2023-02-22T20:57:28.143Z,7.40
2023-02-22T20:59:55.761Z,7.40
2023-02-22T21:02:23.145Z,7.40
2023-02-22T21:04:50.250Z,7.40
2023-02-22T21:07:17.808Z,7.40
2023-02-22T21:09:44.939Z,7.40
2023-02-22T21:12:13.826Z,7.40
2023-02-22T21:14:44.427Z,7.50
2023-02-22T21:17:11.429Z,7.50
2023-02-22T21:19:38.434Z,7.50
2023-02-22T21:22:08.742Z,7.50
2023-02-22T21:24:37.116Z,7.40
2023-02-22T21:27:07.043Z,7.40
2023-02-22T21:29:35.625Z,7.40
2023-02-22T21:32:03.312Z,7.40
2023-02-22T21:34:30.470Z,7.40
2023-02-22T21:36:57.604Z,7.40
2023-02-22T21:39:28.544Z,7.40
2023-02-22T21:42:00.354Z,7.40
2023-02-22T21:44:28.710Z,7.40
2023-02-22T21:46:55.700Z,7.40
2023-02-22T21:49:23.329Z,7.40
2023-02-22T21:51:51.838Z,7.40
2023-02-22T21:54:19.328Z,7.40
2023-02-22T21:56:46.423Z,7.50
2023-02-22T21:59:20.180Z,7.50
2023-02-22T22:01:50.128Z,7.50
2023-02-22T22:04:21.053Z,7.50
2023-02-22T22:06:51.322Z,7.50
2023-02-22T22:09:19.252Z,7.50
2023-02-22T22:11:54.705Z,7.50
2023-02-22T22:14:26.780Z,7.50
2023-02-22T22:16:58.646Z,7.50
2023-02-22T22:19:27.199Z,7.50
2023-02-22T22:21:54.565Z,7.60
2023-02-22T22:24:22.986Z,7.60
2023-02-22T22:26:54.689Z,7.60
2023-02-22T22:29:23.797Z,7.60
2023-02-22T22:31:52.013Z,7.60
2023-02-22T22:34:19.618Z,7.60
2023-02-22T22:36:46.847Z,7.60
2023-02-22T22:39:13.910Z,7.60
2023-02-22T22:41:44.765Z,7.70
2023-02-22T22:44:15.420Z,7.60
2023-02-22T22:46:43.600Z,7.70
2023-02-22T22:49:13.329Z,7.70
2023-02-22T22:51:41.209Z,7.70
2023-02-22T22:54:09.578Z,7.70
2023-02-22T22:56:38.735Z,7.70
2023-02-22T22:59:07.733Z,7.60
2023-02-22T23:01:40.174Z,7.60
2023-02-22T23:04:10.472Z,7.70
2023-02-22T23:06:46.381Z,7.70
2023-02-22T23:09:25.634Z,7.80
2023-02-22T23:11:58.124Z,7.80
2023-02-22T23:14:31.288Z,7.60
2023-02-22T23:17:03.762Z,7.60
2023-02-22T23:19:35.934Z,7.50
2023-02-22T23:22:05.534Z,7.50
2023-02-22T23:24:36.334Z,7.50
2023-02-22T23:27:07.301Z,7.50
2023-02-22T23:29:38.563Z,7.40
2023-02-22T23:32:06.107Z,7.50
2023-02-22T23:34:35.982Z,7.50
2023-02-22T23:37:03.717Z,7.50
2023-02-22T23:39:30.676Z,7.40
2023-02-22T23:41:59.540Z,7.40
2023-02-22T23:44:27.623Z,7.30
2023-02-22T23:46:55.541Z,7.30
2023-02-22T23:49:25.161Z,7.20
2023-02-22T23:51:52.707Z,7.20
2023-02-22T23:54:21.169Z,7.10
2023-02-22T23:56:58.333Z,7.10
2023-02-22T23:59:26.860Z,7.00
